sensor_id;sensor_type;location;lat;lon;timestamp;pressure;altitude;pressure_sealevel;temperature;humidity
31331;BME280;34067;39.548;-76.088;2023-03-17T00:01:18;101382.29;;;13.27;19.99
31331;BME280;34067;39.548;-76.088;2023-03-17T00:03:47;101380.45;;;13.21;20.32
31331;BME280;34067;39.548;-76.088;2023-03-17T00:06:19;101378.44;;;13.21;20.45
31331;BME280;34067;39.548;-76.088;2023-03-17T00:08:48;101376.47;;;13.24;20.50
31331;BME280;34067;39.548;-76.088;2023-03-17T00:11:17;101375.83;;;12.80;20.77
31331;BME280;34067;39.548;-76.088;2023-03-17T00:13:45;101371.49;;;12.47;21.04
31331;BME280;34067;39.548;-76.088;2023-03-17T00:16:18;101371.93;;;13.28;21.02
31331;BME280;34067;39.548;-76.088;2023-03-17T00:18:48;101369.85;;;12.74;21.48
31331;BME280;34067;39.548;-76.088;2023-03-17T00:21:20;101370.05;;;12.31;21.62
31331;BME280;34067;39.548;-76.088;2023-03-17T00:23:50;101371.31;;;12.32;21.94
31331;BME280;34067;39.548;-76.088;2023-03-17T00:26:19;101375.35;;;12.07;22.11
31331;BME280;34067;39.548;-76.088;2023-03-17T00:28:47;101372.17;;;12.63;22.07
31331;BME280;34067;39.548;-76.088;2023-03-17T00:31:17;101377.02;;;11.71;22.66
31331;BME280;34067;39.548;-76.088;2023-03-17T00:33:47;101370.29;;;11.60;22.94
31331;BME280;34067;39.548;-76.088;2023-03-17T00:36:18;101372.73;;;11.40;23.47
31331;BME280;34067;39.548;-76.088;2023-03-17T00:38:47;101374.66;;;11.30;24.37
31331;BME280;34067;39.548;-76.088;2023-03-17T00:41:15;101369.80;;;10.87;24.20
31331;BME280;34067;39.548;-76.088;2023-03-17T00:43:43;101363.44;;;11.58;24.55
31331;BME280;34067;39.548;-76.088;2023-03-17T00:46:15;101353.78;;;11.52;24.39
31331;BME280;34067;39.548;-76.088;2023-03-17T00:48:44;101339.58;;;11.81;24.24
31331;BME280;34067;39.548;-76.088;2023-03-17T00:51:13;101336.90;;;11.98;24.43
31331;BME280;34067;39.548;-76.088;2023-03-17T00:53:41;101347.55;;;11.64;24.64
31331;BME280;34067;39.548;-76.088;2023-03-17T00:56:13;101354.30;;;11.55;24.66
31331;BME280;34067;39.548;-76.088;2023-03-17T00:58:43;101356.55;;;11.97;24.43
31331;BME280;34067;39.548;-76.088;2023-03-17T01:01:11;101358.53;;;11.67;24.78
31331;BME280;34067;39.548;-76.088;2023-03-17T01:03:40;101359.32;;;11.86;24.53
31331;BME280;34067;39.548;-76.088;2023-03-17T01:06:10;101358.86;;;11.73;25.17
31331;BME280;34067;39.548;-76.088;2023-03-17T01:08:40;101362.64;;;11.45;25.40
31331;BME280;34067;39.548;-76.088;2023-03-17T01:11:14;101369.78;;;10.93;25.64
31331;BME280;34067;39.548;-76.088;2023-03-17T01:13:43;101375.22;;;12.02;25.77
31331;BME280;34067;39.548;-76.088;2023-03-17T01:16:13;101374.03;;;11.34;26.34
31331;BME280;34067;39.548;-76.088;2023-03-17T01:18:41;101371.55;;;11.27;26.75
31331;BME280;34067;39.548;-76.088;2023-03-17T01:21:10;101371.48;;;10.67;27.61
31331;BME280;34067;39.548;-76.088;2023-03-17T01:23:38;101370.69;;;10.92;27.98
31331;BME280;34067;39.548;-76.088;2023-03-17T01:26:06;101374.73;;;10.88;28.23
31331;BME280;34067;39.548;-76.088;2023-03-17T01:28:34;101372.01;;;11.06;28.22
31331;BME280;34067;39.548;-76.088;2023-03-17T01:31:03;101372.92;;;11.34;28.12
31331;BME280;34067;39.548;-76.088;2023-03-17T01:33:31;101376.21;;;11.14;28.58
31331;BME280;34067;39.548;-76.088;2023-03-17T01:35:59;101376.73;;;11.09;28.88
31331;BME280;34067;39.548;-76.088;2023-03-17T01:38:27;101372.96;;;9.75;29.98
31331;BME280;34067;39.548;-76.088;2023-03-17T01:40:56;101372.34;;;11.13;29.45
31331;BME280;34067;39.548;-76.088;2023-03-17T01:43:26;101365.15;;;10.68;29.62
31331;BME280;34067;39.548;-76.088;2023-03-17T01:46:18;101363.22;;;10.98;29.28
31331;BME280;34067;39.548;-76.088;2023-03-17T01:48:51;101360.34;;;11.09;29.30
31331;BME280;34067;39.548;-76.088;2023-03-17T01:51:24;101356.95;;;11.16;29.38
31331;BME280;34067;39.548;-76.088;2023-03-17T01:53:54;101357.94;;;11.19;29.41
31331;BME280;34067;39.548;-76.088;2023-03-17T01:56:23;101359.61;;;10.77;29.69
31331;BME280;34067;39.548;-76.088;2023-03-17T01:58:53;101356.69;;;11.00;29.64
31331;BME280;34067;39.548;-76.088;2023-03-17T02:01:28;101357.69;;;10.85;29.97
31331;BME280;34067;39.548;-76.088;2023-03-17T02:04:00;101355.12;;;11.08;30.14
31331;BME280;34067;39.548;-76.088;2023-03-17T02:06:29;101353.56;;;10.48;30.40
31331;BME280;34067;39.548;-76.088;2023-03-17T02:08:57;101355.49;;;10.65;30.27
31331;BME280;34067;39.548;-76.088;2023-03-17T02:11:26;101357.57;;;10.41;30.51
31331;BME280;34067;39.548;-76.088;2023-03-17T02:13:54;101357.93;;;10.78;30.57
31331;BME280;34067;39.548;-76.088;2023-03-17T02:16:23;101355.42;;;10.37;31.10
31331;BME280;34067;39.548;-76.088;2023-03-17T02:18:51;101351.44;;;10.34;31.85
31331;BME280;34067;39.548;-76.088;2023-03-17T02:21:30;101352.00;;;10.46;32.75
31331;BME280;34067;39.548;-76.088;2023-03-17T02:24:00;101354.43;;;10.07;35.19
31331;BME280;34067;39.548;-76.088;2023-03-17T02:26:31;101350.72;;;10.18;37.37
31331;BME280;34067;39.548;-76.088;2023-03-17T02:29:01;101349.36;;;9.58;37.73
31331;BME280;34067;39.548;-76.088;2023-03-17T02:31:29;101346.87;;;9.51;37.82
31331;BME280;34067;39.548;-76.088;2023-03-17T02:33:56;101340.76;;;9.32;38.55
31331;BME280;34067;39.548;-76.088;2023-03-17T02:36:25;101339.50;;;9.73;39.61
31331;BME280;34067;39.548;-76.088;2023-03-17T02:38:53;101337.82;;;9.55;40.20
31331;BME280;34067;39.548;-76.088;2023-03-17T02:41:21;101339.12;;;8.95;41.08
31331;BME280;34067;39.548;-76.088;2023-03-17T02:43:50;101345.11;;;8.25;42.22
31331;BME280;34067;39.548;-76.088;2023-03-17T02:46:17;101343.23;;;8.23;42.96
31331;BME280;34067;39.548;-76.088;2023-03-17T02:48:46;101335.54;;;8.84;43.02
31331;BME280;34067;39.548;-76.088;2023-03-17T02:51:16;101338.91;;;8.54;43.29
31331;BME280;34067;39.548;-76.088;2023-03-17T02:53:44;101337.63;;;8.73;43.07
31331;BME280;34067;39.548;-76.088;2023-03-17T02:56:12;101338.59;;;8.93;42.27
31331;BME280;34067;39.548;-76.088;2023-03-17T02:58:41;101337.94;;;8.23;42.47
31331;BME280;34067;39.548;-76.088;2023-03-17T03:01:09;101341.89;;;8.60;42.36
31331;BME280;34067;39.548;-76.088;2023-03-17T03:03:37;101334.23;;;8.52;41.91
31331;BME280;34067;39.548;-76.088;2023-03-17T03:06:05;101332.52;;;8.98;42.23
31331;BME280;34067;39.548;-76.088;2023-03-17T03:08:34;101325.92;;;8.23;41.28
31331;BME280;34067;39.548;-76.088;2023-03-17T03:11:02;101322.93;;;8.09;42.48
31331;BME280;34067;39.548;-76.088;2023-03-17T03:13:30;101319.25;;;7.91;42.68
31331;BME280;34067;39.548;-76.088;2023-03-17T03:15:59;101316.73;;;8.17;42.40
31331;BME280;34067;39.548;-76.088;2023-03-17T03:18:27;101318.69;;;7.70;42.63
31331;BME280;34067;39.548;-76.088;2023-03-17T03:20:56;101311.32;;;7.87;42.53
31331;BME280;34067;39.548;-76.088;2023-03-17T03:23:24;101309.61;;;7.96;42.54
31331;BME280;34067;39.548;-76.088;2023-03-17T03:25:52;101308.16;;;7.96;43.23
31331;BME280;34067;39.548;-76.088;2023-03-17T03:28:20;101304.49;;;7.58;43.29
31331;BME280;34067;39.548;-76.088;2023-03-17T03:30:48;101297.86;;;7.89;42.87
31331;BME280;34067;39.548;-76.088;2023-03-17T03:33:16;101291.98;;;8.49;42.69
31331;BME280;34067;39.548;-76.088;2023-03-17T03:35:45;101285.17;;;8.50;42.33
31331;BME280;34067;39.548;-76.088;2023-03-17T03:38:13;101279.27;;;7.56;46.15
31331;BME280;34067;39.548;-76.088;2023-03-17T03:40:42;101280.19;;;7.92;46.31
31331;BME280;34067;39.548;-76.088;2023-03-17T03:43:09;101271.70;;;7.95;45.41
31331;BME280;34067;39.548;-76.088;2023-03-17T03:45:37;101266.13;;;8.14;46.29
31331;BME280;34067;39.548;-76.088;2023-03-17T03:48:06;101259.23;;;8.54;44.47
31331;BME280;34067;39.548;-76.088;2023-03-17T03:50:34;101258.45;;;8.60;45.37
31331;BME280;34067;39.548;-76.088;2023-03-17T03:53:03;101255.79;;;8.00;44.31
31331;BME280;34067;39.548;-76.088;2023-03-17T03:55:31;101249.09;;;7.82;44.26
31331;BME280;34067;39.548;-76.088;2023-03-17T03:57:59;101244.68;;;7.74;43.75
31331;BME280;34067;39.548;-76.088;2023-03-17T04:00:28;101246.19;;;7.94;42.99
31331;BME280;34067;39.548;-76.088;2023-03-17T04:02:56;101243.07;;;8.60;42.28
31331;BME280;34067;39.548;-76.088;2023-03-17T04:05:25;101244.11;;;8.04;42.90
31331;BME280;34067;39.548;-76.088;2023-03-17T04:07:53;101241.82;;;8.11;43.09
31331;BME280;34067;39.548;-76.088;2023-03-17T04:10:21;101240.23;;;7.94;42.55
31331;BME280;34067;39.548;-76.088;2023-03-17T04:12:49;101234.69;;;7.33;42.35
31331;BME280;34067;39.548;-76.088;2023-03-17T04:15:18;101230.22;;;8.04;41.78
31331;BME280;34067;39.548;-76.088;2023-03-17T04:17:46;101230.73;;;7.50;42.19
31331;BME280;34067;39.548;-76.088;2023-03-17T04:20:15;101225.82;;;7.45;42.25
31331;BME280;34067;39.548;-76.088;2023-03-17T04:22:44;101221.82;;;7.85;41.98
31331;BME280;34067;39.548;-76.088;2023-03-17T04:25:13;101218.41;;;7.44;42.07
31331;BME280;34067;39.548;-76.088;2023-03-17T04:27:43;101216.31;;;7.58;42.19
31331;BME280;34067;39.548;-76.088;2023-03-17T04:30:12;101212.87;;;7.88;42.05
31331;BME280;34067;39.548;-76.088;2023-03-17T04:32:40;101209.30;;;7.62;41.88
31331;BME280;34067;39.548;-76.088;2023-03-17T04:35:12;101203.89;;;7.64;41.77
31331;BME280;34067;39.548;-76.088;2023-03-17T04:37:40;101194.70;;;7.50;41.92
31331;BME280;34067;39.548;-76.088;2023-03-17T04:40:11;101192.35;;;7.77;42.43
31331;BME280;34067;39.548;-76.088;2023-03-17T04:42:40;101187.28;;;7.77;42.43
31331;BME280;34067;39.548;-76.088;2023-03-17T04:45:10;101186.36;;;7.65;42.64
31331;BME280;34067;39.548;-76.088;2023-03-17T04:47:39;101184.43;;;6.87;42.68
31331;BME280;34067;39.548;-76.088;2023-03-17T04:50:08;101177.17;;;7.58;42.47
31331;BME280;34067;39.548;-76.088;2023-03-17T04:52:37;101172.19;;;7.37;42.83
31331;BME280;34067;39.548;-76.088;2023-03-17T04:55:06;101169.97;;;7.80;42.91
31331;BME280;34067;39.548;-76.088;2023-03-17T04:57:34;101163.91;;;7.62;44.00
31331;BME280;34067;39.548;-76.088;2023-03-17T05:03:11;101156.76;;;7.49;46.52
31331;BME280;34067;39.548;-76.088;2023-03-17T05:05:39;101158.57;;;7.47;46.75
31331;BME280;34067;39.548;-76.088;2023-03-17T05:08:07;101153.19;;;8.00;44.28
31331;BME280;34067;39.548;-76.088;2023-03-17T05:10:36;101145.40;;;7.74;44.38
31331;BME280;34067;39.548;-76.088;2023-03-17T05:13:04;101140.91;;;7.18;44.45
31331;BME280;34067;39.548;-76.088;2023-03-17T05:15:31;101136.60;;;7.38;44.35
31331;BME280;34067;39.548;-76.088;2023-03-17T05:18:00;101135.17;;;7.62;43.73
31331;BME280;34067;39.548;-76.088;2023-03-17T05:20:28;101129.06;;;7.73;46.03
31331;BME280;34067;39.548;-76.088;2023-03-17T05:22:56;101123.71;;;7.76;45.63
31331;BME280;34067;39.548;-76.088;2023-03-17T05:25:24;101120.21;;;7.39;46.42
31331;BME280;34067;39.548;-76.088;2023-03-17T05:27:53;101121.70;;;7.09;47.58
31331;BME280;34067;39.548;-76.088;2023-03-17T05:30:21;101115.06;;;7.31;48.04
31331;BME280;34067;39.548;-76.088;2023-03-17T05:32:49;101114.72;;;6.98;48.84
31331;BME280;34067;39.548;-76.088;2023-03-17T05:35:18;101112.13;;;7.23;48.86
31331;BME280;34067;39.548;-76.088;2023-03-17T05:37:46;101116.40;;;6.55;48.04
31331;BME280;34067;39.548;-76.088;2023-03-17T05:40:14;101106.77;;;7.31;47.93
31331;BME280;34067;39.548;-76.088;2023-03-17T05:42:43;101099.68;;;7.30;47.97
31331;BME280;34067;39.548;-76.088;2023-03-17T05:45:11;101093.51;;;6.86;48.35
31331;BME280;34067;39.548;-76.088;2023-03-17T05:47:40;101095.93;;;7.43;48.34
31331;BME280;34067;39.548;-76.088;2023-03-17T05:50:10;101099.70;;;6.85;48.26
31331;BME280;34067;39.548;-76.088;2023-03-17T05:52:38;101099.56;;;6.57;49.00
31331;BME280;34067;39.548;-76.088;2023-03-17T05:55:07;101095.15;;;6.64;50.49
31331;BME280;34067;39.548;-76.088;2023-03-17T05:57:35;101093.52;;;7.09;51.13
31331;BME280;34067;39.548;-76.088;2023-03-17T06:00:04;101086.80;;;5.98;50.70
31331;BME280;34067;39.548;-76.088;2023-03-17T06:02:32;101081.81;;;6.36;48.45
31331;BME280;34067;39.548;-76.088;2023-03-17T06:05:00;101077.89;;;6.42;48.20
31331;BME280;34067;39.548;-76.088;2023-03-17T06:07:29;101074.66;;;6.39;47.35
31331;BME280;34067;39.548;-76.088;2023-03-17T06:09:57;101070.42;;;6.64;46.92
31331;BME280;34067;39.548;-76.088;2023-03-17T06:12:25;101068.55;;;6.74;45.58
31331;BME280;34067;39.548;-76.088;2023-03-17T06:14:53;101066.25;;;6.61;45.39
31331;BME280;34067;39.548;-76.088;2023-03-17T06:17:20;101062.98;;;6.23;44.81
31331;BME280;34067;39.548;-76.088;2023-03-17T06:19:48;101059.17;;;6.31;44.79
31331;BME280;34067;39.548;-76.088;2023-03-17T06:22:16;101060.49;;;6.85;44.85
31331;BME280;34067;39.548;-76.088;2023-03-17T06:24:44;101056.08;;;5.88;45.81
31331;BME280;34067;39.548;-76.088;2023-03-17T06:27:12;101049.92;;;7.01;43.67
31331;BME280;34067;39.548;-76.088;2023-03-17T06:29:40;101047.01;;;5.22;45.45
31331;BME280;34067;39.548;-76.088;2023-03-17T06:32:08;101033.95;;;6.67;44.70
31331;BME280;34067;39.548;-76.088;2023-03-17T06:34:36;101024.77;;;6.10;44.08
31331;BME280;34067;39.548;-76.088;2023-03-17T06:37:05;101016.75;;;5.97;45.03
31331;BME280;34067;39.548;-76.088;2023-03-17T06:39:33;101009.48;;;5.56;45.47
31331;BME280;34067;39.548;-76.088;2023-03-17T06:42:01;101002.78;;;6.77;45.28
31331;BME280;34067;39.548;-76.088;2023-03-17T06:44:29;101005.53;;;6.82;45.19
31331;BME280;34067;39.548;-76.088;2023-03-17T06:46:57;100997.56;;;6.43;44.95
31331;BME280;34067;39.548;-76.088;2023-03-17T06:49:25;100992.42;;;6.69;46.67
31331;BME280;34067;39.548;-76.088;2023-03-17T06:51:53;100982.29;;;6.74;46.68
31331;BME280;34067;39.548;-76.088;2023-03-17T06:54:22;100977.88;;;6.35;46.26
31331;BME280;34067;39.548;-76.088;2023-03-17T06:56:50;100971.43;;;6.07;46.92
31331;BME280;34067;39.548;-76.088;2023-03-17T06:59:19;100974.61;;;6.80;48.68
31331;BME280;34067;39.548;-76.088;2023-03-17T07:01:47;100977.91;;;6.63;49.02
31331;BME280;34067;39.548;-76.088;2023-03-17T07:04:15;100968.23;;;6.80;46.42
31331;BME280;34067;39.548;-76.088;2023-03-17T07:06:43;100959.88;;;6.50;46.78
31331;BME280;34067;39.548;-76.088;2023-03-17T07:09:12;100954.83;;;6.77;45.72
31331;BME280;34067;39.548;-76.088;2023-03-17T07:11:39;100956.92;;;6.56;46.97
31331;BME280;34067;39.548;-76.088;2023-03-17T07:14:07;100948.76;;;6.81;45.66
31331;BME280;34067;39.548;-76.088;2023-03-17T07:16:35;100947.03;;;6.01;45.52
31331;BME280;34067;39.548;-76.088;2023-03-17T07:19:03;100939.78;;;6.07;44.83
31331;BME280;34067;39.548;-76.088;2023-03-17T07:21:31;100938.88;;;6.18;43.95
31331;BME280;34067;39.548;-76.088;2023-03-17T07:23:59;100938.55;;;6.21;43.46
31331;BME280;34067;39.548;-76.088;2023-03-17T07:26:28;100935.77;;;6.45;43.47
31331;BME280;34067;39.548;-76.088;2023-03-17T07:28:55;100928.34;;;6.61;43.17
31331;BME280;34067;39.548;-76.088;2023-03-17T07:31:23;100925.24;;;6.90;42.72
31331;BME280;34067;39.548;-76.088;2023-03-17T07:33:51;100923.22;;;6.83;44.56
31331;BME280;34067;39.548;-76.088;2023-03-17T07:36:19;100924.25;;;6.61;44.44
31331;BME280;34067;39.548;-76.088;2023-03-17T07:38:46;100918.78;;;6.73;43.32
31331;BME280;34067;39.548;-76.088;2023-03-17T07:41:14;100916.28;;;7.01;42.39
31331;BME280;34067;39.548;-76.088;2023-03-17T07:43:42;100912.60;;;7.34;42.40
31331;BME280;34067;39.548;-76.088;2023-03-17T07:46:11;100904.64;;;7.04;42.32
31331;BME280;34067;39.548;-76.088;2023-03-17T07:48:40;100888.04;;;7.05;42.39
31331;BME280;34067;39.548;-76.088;2023-03-17T07:51:13;100880.13;;;7.20;42.26
31331;BME280;34067;39.548;-76.088;2023-03-17T07:53:42;100901.43;;;7.44;41.99
31331;BME280;34067;39.548;-76.088;2023-03-17T07:56:10;100906.42;;;7.22;42.51
31331;BME280;34067;39.548;-76.088;2023-03-17T07:58:37;100903.15;;;7.11;42.82
31331;BME280;34067;39.548;-76.088;2023-03-17T08:01:06;100903.36;;;7.13;42.45
31331;BME280;34067;39.548;-76.088;2023-03-17T08:03:35;100916.07;;;7.80;42.55
31331;BME280;34067;39.548;-76.088;2023-03-17T08:06:03;100919.59;;;6.89;43.06
31331;BME280;34067;39.548;-76.088;2023-03-17T08:08:31;100918.83;;;6.87;42.59
31331;BME280;34067;39.548;-76.088;2023-03-17T08:11:02;100916.40;;;7.13;42.84
31331;BME280;34067;39.548;-76.088;2023-03-17T08:13:31;100915.65;;;7.36;42.48
31331;BME280;34067;39.548;-76.088;2023-03-17T08:15:59;100912.02;;;6.88;43.33
31331;BME280;34067;39.548;-76.088;2023-03-17T08:18:27;100915.36;;;7.09;42.58
31331;BME280;34067;39.548;-76.088;2023-03-17T08:20:55;100915.25;;;7.19;42.87
31331;BME280;34067;39.548;-76.088;2023-03-17T08:23:22;100912.12;;;7.09;43.29
31331;BME280;34067;39.548;-76.088;2023-03-17T08:25:54;100903.74;;;7.27;44.62
31331;BME280;34067;39.548;-76.088;2023-03-17T08:28:23;100902.02;;;8.05;45.78
31331;BME280;34067;39.548;-76.088;2023-03-17T08:30:51;100898.22;;;7.27;46.04
31331;BME280;34067;39.548;-76.088;2023-03-17T08:33:19;100893.46;;;7.76;47.78
31331;BME280;34067;39.548;-76.088;2023-03-17T08:35:47;100889.94;;;7.36;49.42
31331;BME280;34067;39.548;-76.088;2023-03-17T08:38:15;100888.85;;;7.87;49.70
31331;BME280;34067;39.548;-76.088;2023-03-17T08:40:44;100884.87;;;7.39;50.64
31331;BME280;34067;39.548;-76.088;2023-03-17T08:43:12;100880.88;;;6.37;52.44
31331;BME280;34067;39.548;-76.088;2023-03-17T08:45:39;100883.28;;;6.61;52.22
31331;BME280;34067;39.548;-76.088;2023-03-17T08:48:07;100878.32;;;6.73;51.68
31331;BME280;34067;39.548;-76.088;2023-03-17T08:50:35;100873.43;;;7.38;50.97
31331;BME280;34067;39.548;-76.088;2023-03-17T08:53:03;100874.23;;;7.10;50.76
31331;BME280;34067;39.548;-76.088;2023-03-17T08:55:31;100875.61;;;7.74;50.02
31331;BME280;34067;39.548;-76.088;2023-03-17T08:58:00;100871.04;;;7.76;50.60
31331;BME280;34067;39.548;-76.088;2023-03-17T09:00:27;100867.54;;;7.27;48.90
31331;BME280;34067;39.548;-76.088;2023-03-17T09:02:55;100866.35;;;7.72;49.00
31331;BME280;34067;39.548;-76.088;2023-03-17T09:05:23;100860.90;;;7.60;48.52
31331;BME280;34067;39.548;-76.088;2023-03-17T09:07:51;100863.99;;;7.32;48.82
31331;BME280;34067;39.548;-76.088;2023-03-17T09:10:19;100864.31;;;6.62;49.82
31331;BME280;34067;39.548;-76.088;2023-03-17T09:12:47;100867.31;;;7.66;49.01
31331;BME280;34067;39.548;-76.088;2023-03-17T09:15:15;100863.52;;;6.64;49.49
31331;BME280;34067;39.548;-76.088;2023-03-17T09:17:43;100865.58;;;7.60;49.44
31331;BME280;34067;39.548;-76.088;2023-03-17T09:20:12;100861.16;;;7.81;48.49
31331;BME280;34067;39.548;-76.088;2023-03-17T09:22:40;100857.75;;;7.34;47.75
31331;BME280;34067;39.548;-76.088;2023-03-17T09:25:09;100855.04;;;7.33;48.25
31331;BME280;34067;39.548;-76.088;2023-03-17T09:27:36;100854.45;;;7.45;48.45
31331;BME280;34067;39.548;-76.088;2023-03-17T09:30:06;100854.61;;;7.51;48.70
31331;BME280;34067;39.548;-76.088;2023-03-17T09:32:34;100853.14;;;7.24;48.88
31331;BME280;34067;39.548;-76.088;2023-03-17T09:35:01;100852.04;;;7.38;50.52
31331;BME280;34067;39.548;-76.088;2023-03-17T09:37:30;100852.71;;;7.80;50.13
31331;BME280;34067;39.548;-76.088;2023-03-17T09:39:59;100851.46;;;7.59;51.18
31331;BME280;34067;39.548;-76.088;2023-03-17T09:42:38;100855.07;;;7.74;53.10
31331;BME280;34067;39.548;-76.088;2023-03-17T09:45:20;100853.45;;;7.41;52.13
31331;BME280;34067;39.548;-76.088;2023-03-17T09:48:59;100861.17;;;5.54;53.14
31331;BME280;34067;39.548;-76.088;2023-03-17T09:51:29;100857.05;;;4.54;61.94
31331;BME280;34067;39.548;-76.088;2023-03-17T09:54:01;100851.93;;;5.85;57.45
31331;BME280;34067;39.548;-76.088;2023-03-17T09:56:31;100848.14;;;4.60;62.09
31331;BME280;34067;39.548;-76.088;2023-03-17T09:59:05;100841.83;;;5.83;60.46
31331;BME280;34067;39.548;-76.088;2023-03-17T10:01:34;100831.90;;;7.33;58.39
31331;BME280;34067;39.548;-76.088;2023-03-17T10:04:02;100830.56;;;6.60;56.67
31331;BME280;34067;39.548;-76.088;2023-03-17T10:06:35;100824.61;;;7.74;55.42
31331;BME280;34067;39.548;-76.088;2023-03-17T10:09:19;100826.38;;;7.57;52.65
31331;BME280;34067;39.548;-76.088;2023-03-17T10:11:52;100831.09;;;6.75;51.55
31331;BME280;34067;39.548;-76.088;2023-03-17T10:14:38;100829.24;;;6.82;52.94
31331;BME280;34067;39.548;-76.088;2023-03-17T10:17:15;100825.96;;;7.74;51.63
31331;BME280;34067;39.548;-76.088;2023-03-17T10:19:51;100820.40;;;7.54;50.48
31331;BME280;34067;39.548;-76.088;2023-03-17T10:22:28;100823.01;;;7.70;49.89
31331;BME280;34067;39.548;-76.088;2023-03-17T10:25:00;100815.57;;;7.93;49.68
31331;BME280;34067;39.548;-76.088;2023-03-17T10:27:35;100797.59;;;7.50;48.87
31331;BME280;34067;39.548;-76.088;2023-03-17T10:30:09;100797.34;;;7.80;50.56
31331;BME280;34067;39.548;-76.088;2023-03-17T10:32:41;100798.68;;;8.13;49.00
31331;BME280;34067;39.548;-76.088;2023-03-17T10:35:11;100815.04;;;7.77;50.83
31331;BME280;34067;39.548;-76.088;2023-03-17T10:37:40;100817.07;;;7.84;50.43
31331;BME280;34067;39.548;-76.088;2023-03-17T10:40:20;100808.76;;;7.37;50.59
31331;BME280;34067;39.548;-76.088;2023-03-17T10:42:53;100802.53;;;7.60;50.69
31331;BME280;34067;39.548;-76.088;2023-03-17T10:45:27;100799.32;;;7.64;51.34
31331;BME280;34067;39.548;-76.088;2023-03-17T10:47:58;100795.13;;;7.74;51.02
31331;BME280;34067;39.548;-76.088;2023-03-17T10:50:28;100793.32;;;7.10;51.70
31331;BME280;34067;39.548;-76.088;2023-03-17T10:52:59;100791.89;;;6.76;53.93
31331;BME280;34067;39.548;-76.088;2023-03-17T10:55:30;100790.08;;;7.53;53.22
31331;BME280;34067;39.548;-76.088;2023-03-17T10:58:03;100795.52;;;7.61;52.79
31331;BME280;34067;39.548;-76.088;2023-03-17T11:00:33;100804.55;;;7.05;52.44
31331;BME280;34067;39.548;-76.088;2023-03-17T11:03:10;100801.33;;;7.56;50.23
31331;BME280;34067;39.548;-76.088;2023-03-17T11:05:55;100798.50;;;7.47;50.41
31331;BME280;34067;39.548;-76.088;2023-03-17T11:08:23;100800.44;;;7.64;49.76
31331;BME280;34067;39.548;-76.088;2023-03-17T11:10:54;100804.63;;;7.40;50.49
31331;BME280;34067;39.548;-76.088;2023-03-17T11:13:28;100809.99;;;7.75;50.25
31331;BME280;34067;39.548;-76.088;2023-03-17T11:16:07;100820.94;;;7.30;49.48
31331;BME280;34067;39.548;-76.088;2023-03-17T11:18:37;100822.95;;;7.79;48.28
31331;BME280;34067;39.548;-76.088;2023-03-17T11:21:09;100819.22;;;7.98;46.41
31331;BME280;34067;39.548;-76.088;2023-03-17T11:23:46;100830.05;;;7.63;45.97
31331;BME280;34067;39.548;-76.088;2023-03-17T11:26:32;100838.30;;;7.92;46.20
31331;BME280;34067;39.548;-76.088;2023-03-17T11:29:27;100839.49;;;7.27;43.44
31331;BME280;34067;39.548;-76.088;2023-03-17T11:32:00;100851.33;;;8.14;42.63
31331;BME280;34067;39.548;-76.088;2023-03-17T11:34:45;100855.20;;;6.88;43.37
31331;BME280;34067;39.548;-76.088;2023-03-17T11:37:30;100848.88;;;7.62;43.33
31331;BME280;34067;39.548;-76.088;2023-03-17T11:40:05;100851.46;;;6.18;47.79
31331;BME280;34067;39.548;-76.088;2023-03-17T11:42:43;100856.94;;;7.32;46.29
31331;BME280;34067;39.548;-76.088;2023-03-17T11:45:22;100853.07;;;7.19;46.14
31331;BME280;34067;39.548;-76.088;2023-03-17T11:48:06;100850.25;;;5.98;49.16
31331;BME280;34067;39.548;-76.088;2023-03-17T11:50:42;100846.52;;;5.13;55.89
31331;BME280;34067;39.548;-76.088;2023-03-17T11:53:29;100833.36;;;6.16;55.30
31331;BME280;34067;39.548;-76.088;2023-03-17T11:56:08;100832.44;;;6.47;58.86
31331;BME280;34067;39.548;-76.088;2023-03-17T11:58:42;100827.92;;;6.86;59.02
31331;BME280;34067;39.548;-76.088;2023-03-17T12:01:15;100833.68;;;6.70;59.97
31331;BME280;34067;39.548;-76.088;2023-03-17T12:03:48;100833.51;;;6.74;60.08
31331;BME280;34067;39.548;-76.088;2023-03-17T12:06:20;100832.39;;;5.48;63.23
31331;BME280;34067;39.548;-76.088;2023-03-17T12:08:56;100822.63;;;5.87;65.47
31331;BME280;34067;39.548;-76.088;2023-03-17T12:11:28;100814.17;;;4.57;66.56
31331;BME280;34067;39.548;-76.088;2023-03-17T12:14:01;100807.95;;;5.73;67.90
31331;BME280;34067;39.548;-76.088;2023-03-17T12:16:34;100800.15;;;4.57;67.99
31331;BME280;34067;39.548;-76.088;2023-03-17T12:19:11;100795.33;;;6.72;65.88
31331;BME280;34067;39.548;-76.088;2023-03-17T12:21:47;100787.34;;;6.46;66.77
31331;BME280;34067;39.548;-76.088;2023-03-17T12:24:20;100778.89;;;6.08;68.12
31331;BME280;34067;39.548;-76.088;2023-03-17T12:26:54;100779.97;;;5.90;68.13
31331;BME280;34067;39.548;-76.088;2023-03-17T12:29:33;100781.15;;;6.13;68.60
31331;BME280;34067;39.548;-76.088;2023-03-17T12:32:11;100775.57;;;6.18;67.98
31331;BME280;34067;39.548;-76.088;2023-03-17T12:34:45;100766.86;;;6.75;65.04
31331;BME280;34067;39.548;-76.088;2023-03-17T12:37:16;100763.13;;;6.66;63.19
31331;BME280;34067;39.548;-76.088;2023-03-17T12:39:51;100756.64;;;7.48;61.03
31331;BME280;34067;39.548;-76.088;2023-03-17T12:42:30;100755.47;;;7.55;60.82
31331;BME280;34067;39.548;-76.088;2023-03-17T12:46:20;100750.32;;;7.68;58.60
31331;BME280;34067;39.548;-76.088;2023-03-17T12:50:13;100765.54;;;7.88;54.42
31331;BME280;34067;39.548;-76.088;2023-03-17T12:53:02;100759.40;;;8.24;50.88
31331;BME280;34067;39.548;-76.088;2023-03-17T12:55:37;100740.84;;;8.79;46.39
31331;BME280;34067;39.548;-76.088;2023-03-17T12:58:20;100738.66;;;8.88;45.57
31331;BME280;34067;39.548;-76.088;2023-03-17T13:00:58;100737.68;;;8.36;45.40